Date,TemperatureHighF,TemperatureAvgF,TemperatureLowF,DewpointHighF,DewpointAvgF,DewpointLowF,HumidityHigh,HumidityAvg,HumidityLow,PressureMaxIn,PressureMinIn,WindSpeedMaxMPH,WindSpeedAvgMPH,GustSpeedMaxMPH,PrecipitationSumIn
2013-1-1,62,53,46,54,48,42,95,84,72,30.16,29.90,1,0,3,0.01
2013-1-2,60,55,52,54,52,50,97,91,77,30.11,29.88,1,0,6,0.06
2013-1-3,53,48,42,50,45,40,95,90,76,30.26,30.06,2,0,6,0.02
2013-1-4,54,42,32,39,35,28,96,78,51,30.35,30.23,4,0,8,0.00
2013-1-5,53,41,28,36,29,24,86,63,39,30.40,30.26,2,0,4,0.00
2013-1-6,51,47,41,46,41,34,94,82,59,30.26,30.08,5,1,10,0.03
2013-1-7,55,43,34,37,34,32,95,74,46,30.39,30.20,2,0,6,0.00
2013-1-8,57,47,37,46,40,32,85,77,66,30.40,30.30,1,0,5,0.00
2013-1-9,69,58,46,57,51,43,90,78,62,30.42,30.32,1,0,3,0.00
2013-1-10,73,62,53,59,55,50,93,78,53,30.42,30.27,3,1,8,0.00
2013-1-11,74,65,60,65,62,58,98,90,73,30.27,30.11,3,1,10,0.01
2013-1-12,79,67,59,63,60,58,98,80,55,30.16,30.05,5,1,10,0.00
2013-1-13,76,67,61,64,61,58,94,82,65,30.12,30.02,3,1,8,0.00
2013-1-14,78,68,61,64,61,58,92,79,60,30.12,30.03,5,2,11,0.00
2013-1-15,75,68,60,62,60,58,94,78,62,30.09,29.96,4,1,12,0.00
2013-1-16,74,67,62,65,62,59,96,84,69,29.98,29.90,7,1,8,0.05
2013-1-17,69,57,42,66,54,38,98,92,78,30.16,29.68,9,2,21,0.47
2013-1-18,54,42,32,39,32,25,96,69,34,30.48,30.16,3,0,5,0.00
2013-1-19,59,44,33,39,31,25,80,61,36,30.48,30.21,3,0,5,0.00
2013-1-20,64,50,38,40,37,35,89,65,39,30.21,30.05,6,1,11,0.00
2013-1-21,62,49,34,40,33,23,94,59,28,30.08,29.98,8,3,19,0.00
2013-1-22,50,42,34,24,20,18,57,43,29,30.27,30.06,7,3,15,0.00
2013-1-23,53,41,26,36,25,19,77,55,39,30.37,30.15,8,1,11,0.00
2013-1-24,63,51,34,44,31,11,81,51,20,30.42,30.08,10,3,14,0.00
2013-1-25,36,31,28,22,14,10,56,49,38,30.45,30.20,1,0,3,0.00
2013-1-26,51,46,42,36,34,32,71,62,56,30.29,30.18,0,0,2,0.00
2013-1-27,53,43,32,33,30,27,86,61,40,30.51,30.29,2,0,8,0.00
2013-1-28,58,47,41,49,40,30,89,76,58,30.44,30.27,2,0,5,0.00
2013-1-29,76,60,44,62,54,42,97,82,61,30.27,30.03,4,1,8,0.00
2013-1-30,78,67,51,66,61,47,94,83,59,30.03,29.49,14,4,26,0.71
2013-1-31,52,45,38,47,29,22,87,56,31,30.16,29.68,13,6,23,0.00